createdAt,value
2023-02-11T00:03:45.288Z,102479.56
2023-02-11T00:08:47.837Z,102507.78
2023-02-11T00:13:50.204Z,102515.53
2023-02-11T00:18:54.434Z,102520.03
2023-02-11T00:23:58.366Z,102499.94
2023-02-11T00:29:01.917Z,102494.00
2023-02-11T00:34:04.157Z,102492.13
2023-02-11T00:39:07.567Z,102497.19
2023-02-11T00:44:09.654Z,102469.22
2023-02-11T00:49:12.083Z,102504.00
2023-02-11T00:54:14.235Z,102506.44
2023-02-11T00:59:16.533Z,102488.31
2023-02-11T01:04:18.820Z,102489.16
2023-02-11T01:09:21.585Z,102513.59
2023-02-11T01:14:23.900Z,102485.00
2023-02-11T01:19:25.980Z,102485.38
2023-02-11T01:24:28.568Z,102507.03
2023-02-11T01:29:30.958Z,102482.75
2023-02-11T01:34:33.055Z,102458.13
2023-02-11T01:39:35.974Z,102454.13
2023-02-11T01:44:40.617Z,102490.53
2023-02-11T01:49:50.375Z,102476.19
2023-02-11T01:55:19.267Z,102462.72
2023-02-11T02:00:26.677Z,102481.78
2023-02-11T02:05:31.701Z,102484.09
2023-02-11T02:10:37.006Z,102434.47
2023-02-11T02:15:51.062Z,102474.47
2023-02-11T02:21:13.784Z,102480.16
2023-02-11T02:26:52.087Z,102475.09
2023-02-11T02:32:12.752Z,102477.72
2023-02-11T02:37:47.941Z,102453.16
2023-02-11T02:42:51.386Z,102446.94
2023-02-11T02:47:53.845Z,102447.16
2023-02-11T02:58:36.412Z,102467.84
2023-02-11T03:04:12.598Z,102456.41
2023-02-11T03:09:27.189Z,102429.50
2023-02-11T03:14:31.151Z,102453.16
2023-02-11T03:19:39.183Z,102429.41
2023-02-11T03:24:41.931Z,102440.56
2023-02-11T03:29:56.111Z,102453.16
2023-02-11T03:35:04.202Z,102442.19
2023-02-11T03:40:11.134Z,102454.06
2023-02-11T03:45:18.987Z,102406.38
2023-02-11T03:50:22.487Z,102470.66
2023-02-11T03:55:27.060Z,102463.56
2023-02-11T04:00:34.375Z,102442.34
2023-02-11T04:05:37.082Z,102486.63
2023-02-11T04:10:39.271Z,102457.66
2023-02-11T04:15:41.415Z,102484.91
2023-02-11T04:20:43.798Z,102455.47
2023-02-11T04:25:46.006Z,102446.22
2023-02-11T04:30:50.744Z,102488.38
2023-02-11T04:35:53.030Z,102473.53
2023-02-11T04:40:55.243Z,102439.81
2023-02-11T04:45:59.146Z,102438.50
2023-02-11T04:51:02.737Z,102468.03
2023-02-11T04:56:05.275Z,102473.69
2023-02-11T05:01:09.753Z,102440.53
2023-02-11T05:06:12.099Z,102432.78
2023-02-11T05:11:21.901Z,102477.88
2023-02-11T05:16:24.249Z,102476.38
2023-02-11T05:21:26.440Z,102469.31
2023-02-11T05:26:28.661Z,102483.88
2023-02-11T05:31:30.837Z,102458.38
2023-02-11T05:36:33.569Z,102448.69
2023-02-11T05:41:35.731Z,102483.09
2023-02-11T05:46:37.974Z,102468.75
2023-02-11T05:51:40.308Z,102458.63
2023-02-11T05:56:44.717Z,102474.59
2023-02-11T06:01:47.091Z,102447.34
2023-02-11T06:06:49.270Z,102459.75
2023-02-11T06:11:51.353Z,102475.72
2023-02-11T06:16:53.548Z,102497.59
2023-02-11T06:21:56.858Z,102498.09
2023-02-11T06:26:58.934Z,102497.00
2023-02-11T06:32:01.149Z,102476.38
2023-02-11T06:37:03.699Z,102494.16
2023-02-11T06:42:07.921Z,102481.75
2023-02-11T06:47:10.255Z,102484.97
2023-02-11T06:52:12.490Z,102479.38
2023-02-11T06:57:14.637Z,102498.59
2023-02-11T07:02:19.666Z,102469.94
2023-02-11T07:07:22.857Z,102479.88
2023-02-11T07:12:25.013Z,102477.66
2023-02-11T07:17:27.188Z,102474.56
2023-02-11T07:22:29.298Z,102482.84
2023-02-11T07:27:31.487Z,102432.97
2023-02-11T07:32:33.636Z,102483.84
2023-02-11T07:37:35.997Z,102469.13
2023-02-11T07:42:40.713Z,102487.50
2023-02-11T07:47:43.201Z,102453.88
2023-02-11T07:52:45.397Z,102459.63
2023-02-11T07:57:47.567Z,102426.56
2023-02-11T08:02:49.731Z,102413.56
2023-02-11T08:07:53.360Z,102437.25
2023-02-11T08:12:55.730Z,102466.47
2023-02-11T08:17:58.007Z,102445.31
2023-02-11T08:23:00.225Z,102426.69
2023-02-11T08:28:02.357Z,102460.50
2023-02-11T08:33:05.093Z,102438.31
2023-02-11T08:38:07.272Z,102413.09
2023-02-11T08:43:09.411Z,102471.69
2023-02-11T08:48:11.665Z,102439.44
2023-02-11T08:53:13.985Z,102460.22
2023-02-11T08:58:18.787Z,102410.91
2023-02-11T09:03:24.063Z,102460.25
2023-02-11T09:08:26.410Z,102452.44
2023-02-11T09:13:28.720Z,102408.78
2023-02-11T09:18:31.385Z,102416.63
2023-02-11T09:23:35.023Z,102437.34
2023-02-11T09:28:37.474Z,102418.47
2023-02-11T09:33:42.452Z,102421.75
2023-02-11T09:38:45.451Z,102390.94
2023-02-11T09:43:49.991Z,102408.72
2023-02-11T09:48:56.625Z,102405.44
2023-02-11T09:54:05.609Z,102408.34
2023-02-11T09:59:14.398Z,102362.09
2023-02-11T10:04:47.756Z,102363.31
2023-02-11T10:10:01.972Z,102382.13
2023-02-11T10:15:22.068Z,102375.25
2023-02-11T10:20:54.845Z,102367.88
2023-02-11T10:25:58.161Z,102348.81
2023-02-11T10:31:09.175Z,102334.81
2023-02-11T10:36:16.806Z,102324.38
2023-02-11T10:41:24.822Z,102309.69
2023-02-11T10:46:32.596Z,102303.00
2023-02-11T10:51:34.902Z,102302.81
2023-02-11T10:56:40.292Z,102269.47
2023-02-11T11:01:42.485Z,102288.09
2023-02-11T11:06:44.854Z,102264.91
2023-02-11T11:11:54.147Z,102265.19
2023-02-11T11:16:56.353Z,102255.22
2023-02-11T11:21:58.586Z,102248.59
2023-02-11T11:27:03.546Z,102222.75
2023-02-11T11:32:17.782Z,102233.50
2023-02-11T11:37:28.474Z,102203.03
2023-02-11T11:42:33.619Z,102208.25
2023-02-11T11:47:43.395Z,102209.44
2023-02-11T11:52:48.135Z,102218.03
2023-02-11T11:57:51.249Z,102201.69
2023-02-11T12:03:42.667Z,102192.66
2023-02-11T12:09:21.950Z,102193.81
2023-02-11T12:14:33.259Z,102184.78
2023-02-11T12:19:59.703Z,102181.81
2023-02-11T12:25:25.794Z,102170.25
2023-02-11T12:30:59.916Z,102168.97
2023-02-11T12:36:13.883Z,102163.78
2023-02-11T12:41:51.476Z,102126.97
2023-02-11T12:47:37.506Z,102145.78
2023-02-11T12:53:04.616Z,102134.50
2023-02-11T12:58:17.596Z,102132.47
2023-02-11T13:03:43.681Z,102138.84
2023-02-11T13:08:53.988Z,102119.53
2023-02-11T13:14:13.297Z,102122.22
2023-02-11T13:19:33.459Z,102105.63
2023-02-11T13:24:51.599Z,102105.47
2023-02-11T13:30:12.171Z,102095.84
2023-02-11T13:35:39.840Z,102110.06
2023-02-11T13:40:42.089Z,102075.97
2023-02-11T13:45:47.496Z,102062.59
2023-02-11T13:50:53.817Z,102087.63
2023-02-11T13:56:12.408Z,102078.69
2023-02-11T14:01:44.646Z,102071.66
2023-02-11T14:07:44.142Z,102063.47
2023-02-11T14:13:06.675Z,102035.09
2023-02-11T14:18:39.621Z,102057.63
2023-02-11T14:23:42.594Z,102033.31
2023-02-11T14:28:47.131Z,102040.50
2023-02-11T14:33:59.986Z,102025.50
2023-02-11T14:39:27.454Z,102014.47
2023-02-11T14:44:32.841Z,102036.75
2023-02-11T14:49:40.286Z,102030.25
2023-02-11T14:54:44.374Z,102030.28
2023-02-11T15:00:04.582Z,102025.47
2023-02-11T15:05:22.557Z,102035.66
2023-02-11T15:10:36.371Z,102032.06
2023-02-11T15:15:41.150Z,102042.00
2023-02-11T15:20:43.531Z,102039.34
2023-02-11T15:25:56.233Z,102031.69
2023-02-11T15:31:14.120Z,102040.00
2023-02-11T15:36:18.045Z,102031.38
2023-02-11T15:41:49.494Z,102032.56
2023-02-11T15:46:51.789Z,102011.81
2023-02-11T15:51:57.403Z,101983.06
2023-02-11T15:57:08.837Z,102016.59
2023-02-11T16:02:33.193Z,102010.69
2023-02-11T16:07:40.807Z,102008.59
2023-02-11T16:12:52.208Z,102014.09
2023-02-11T16:17:55.001Z,102004.75
2023-02-11T16:22:57.296Z,101994.03
2023-02-11T16:27:59.552Z,101981.63
2023-02-11T16:33:01.975Z,101998.16
2023-02-11T16:38:04.120Z,102004.06
2023-02-11T16:43:06.345Z,101978.31
2023-02-11T16:48:10.205Z,101988.56
2023-02-11T16:53:13.956Z,101994.78
2023-02-11T16:58:16.480Z,101979.81
2023-02-11T17:03:27.428Z,101992.09
2023-02-11T17:08:30.944Z,102000.50
2023-02-11T17:13:33.790Z,101961.59
2023-02-11T17:18:37.291Z,101978.19
2023-02-11T17:23:39.943Z,101993.69
2023-02-11T17:28:42.190Z,101988.81
2023-02-11T17:33:44.479Z,101987.28
2023-02-11T17:38:46.749Z,101969.41
2023-02-11T17:43:49.015Z,101970.19
2023-02-11T17:48:53.282Z,101952.00
2023-02-11T17:53:58.483Z,101943.31
2023-02-11T17:59:02.740Z,101987.16
2023-02-11T18:04:05.972Z,101976.25
2023-02-11T18:09:08.263Z,101977.94
2023-02-11T18:14:10.783Z,101971.16
2023-02-11T18:19:13.446Z,101994.72
2023-02-11T18:24:15.693Z,101970.00
2023-02-11T18:29:17.846Z,101996.31
2023-02-11T18:34:20.033Z,101991.00
2023-02-11T18:39:24.476Z,101950.53
2023-02-11T18:44:27.622Z,101980.03
2023-02-11T18:49:29.782Z,101975.09
2023-02-11T18:54:32.039Z,101965.31
2023-02-11T18:59:34.259Z,101959.03
2023-02-11T19:04:37.867Z,101970.06
2023-02-11T19:09:40.077Z,101962.25
2023-02-11T19:14:42.245Z,101962.13
2023-02-11T19:19:44.422Z,102004.56
2023-02-11T19:24:46.695Z,101968.31
2023-02-11T19:29:49.043Z,101976.47
2023-02-11T19:34:52.260Z,101986.03
2023-02-11T19:39:54.503Z,101985.13
2023-02-11T19:44:57.589Z,101955.88
2023-02-11T19:49:59.924Z,101953.22
2023-02-11T19:55:02.140Z,102002.69
2023-02-11T20:00:05.339Z,101982.09
2023-02-11T20:05:08.245Z,101986.53
2023-02-11T20:10:10.846Z,102000.47
2023-02-11T20:15:13.112Z,102002.78
2023-02-11T20:20:15.348Z,101971.47
2023-02-11T20:25:17.630Z,102001.16
2023-02-11T20:30:21.885Z,101959.34
2023-02-11T20:35:24.037Z,101975.78
2023-02-11T20:40:27.455Z,101983.19
2023-02-11T20:45:29.710Z,101959.25
2023-02-11T20:50:31.849Z,101966.84
2023-02-11T20:55:38.416Z,101964.66
2023-02-11T21:00:40.615Z,101937.25
2023-02-11T21:05:42.815Z,101935.78
2023-02-11T21:10:44.986Z,101940.06
2023-02-11T21:15:47.236Z,101938.28
2023-02-11T21:20:49.718Z,101966.94
2023-02-11T21:25:54.143Z,101966.44
2023-02-11T21:30:58.271Z,101956.16
2023-02-11T21:36:03.082Z,101981.06
2023-02-11T21:41:06.239Z,101983.59
2023-02-11T21:46:14.807Z,101985.44
2023-02-11T21:51:23.326Z,101972.34
2023-02-11T21:56:28.800Z,101947.81
2023-02-11T22:01:33.649Z,101947.56
2023-02-11T22:06:35.951Z,101940.34
2023-02-11T22:11:38.382Z,101954.09
2023-02-11T22:16:40.792Z,101940.28
2023-02-11T22:21:43.748Z,101919.00
2023-02-11T22:26:45.878Z,101953.75
2023-02-11T22:31:48.102Z,101932.19
2023-02-11T22:36:50.244Z,101917.31
2023-02-11T22:41:54.732Z,101905.94
2023-02-11T22:46:57.250Z,101923.44
2023-02-11T22:51:59.874Z,101916.25
2023-02-11T22:57:02.075Z,101902.53
2023-02-11T23:02:04.488Z,101918.19
2023-02-11T23:07:07.457Z,101883.22
2023-02-11T23:12:09.569Z,101875.28
2023-02-11T23:17:11.781Z,101887.03
2023-02-11T23:22:13.885Z,101896.19
2023-02-11T23:27:16.010Z,101902.16
2023-02-11T23:32:19.652Z,101900.00
2023-02-11T23:37:21.924Z,101879.00
2023-02-11T23:42:24.091Z,101883.34
2023-02-11T23:47:26.204Z,101887.19
2023-02-11T23:52:28.656Z,101868.53
2023-02-11T23:57:33.256Z,101876.63
